sensor_id;sensor_type;location;lat;lon;timestamp;P1;durP1;ratioP1;P2;durP2;ratioP2
2488;SDS011;1255;48.716;9.124;2023-04-06T00:00:25;4.03;;;3.33;;
2488;SDS011;1255;48.716;9.124;2023-04-06T00:02:52;5.80;;;4.00;;
2488;SDS011;1255;48.716;9.124;2023-04-06T00:05:21;4.53;;;4.05;;
2488;SDS011;1255;48.716;9.124;2023-04-06T00:07:48;6.43;;;4.47;;
2488;SDS011;1255;48.716;9.124;2023-04-06T00:10:15;5.53;;;3.92;;
2488;SDS011;1255;48.716;9.124;2023-04-06T00:12:42;4.80;;;3.90;;
2488;SDS011;1255;48.716;9.124;2023-04-06T00:15:10;6.22;;;4.40;;
2488;SDS011;1255;48.716;9.124;2023-04-06T00:17:36;7.05;;;4.80;;
2488;SDS011;1255;48.716;9.124;2023-04-06T00:20:04;5.63;;;4.07;;
2488;SDS011;1255;48.716;9.124;2023-04-06T00:22:33;5.60;;;4.15;;
2488;SDS011;1255;48.716;9.124;2023-04-06T00:25:00;4.35;;;3.90;;
2488;SDS011;1255;48.716;9.124;2023-04-06T00:27:27;6.20;;;3.92;;
2488;SDS011;1255;48.716;9.124;2023-04-06T00:29:54;5.00;;;4.10;;
2488;SDS011;1255;48.716;9.124;2023-04-06T00:32:20;5.07;;;3.50;;
2488;SDS011;1255;48.716;9.124;2023-04-06T00:34:47;5.82;;;4.32;;
2488;SDS011;1255;48.716;9.124;2023-04-06T00:37:14;7.32;;;4.50;;
2488;SDS011;1255;48.716;9.124;2023-04-06T00:39:42;7.40;;;4.63;;
2488;SDS011;1255;48.716;9.124;2023-04-06T00:42:10;4.20;;;3.80;;
2488;SDS011;1255;48.716;9.124;2023-04-06T00:44:38;11.65;;;3.45;;
2488;SDS011;1255;48.716;9.124;2023-04-06T00:47:05;8.93;;;3.88;;
2488;SDS011;1255;48.716;9.124;2023-04-06T00:49:32;4.20;;;3.80;;
2488;SDS011;1255;48.716;9.124;2023-04-06T00:51:59;3.85;;;2.92;;
2488;SDS011;1255;48.716;9.124;2023-04-06T00:54:27;5.05;;;4.28;;
2488;SDS011;1255;48.716;9.124;2023-04-06T00:56:56;6.90;;;3.95;;
2488;SDS011;1255;48.716;9.124;2023-04-06T00:59:23;4.88;;;3.85;;
2488;SDS011;1255;48.716;9.124;2023-04-06T01:01:50;5.93;;;4.03;;
2488;SDS011;1255;48.716;9.124;2023-04-06T01:04:16;6.95;;;5.32;;
2488;SDS011;1255;48.716;9.124;2023-04-06T01:06:43;4.20;;;3.80;;
2488;SDS011;1255;48.716;9.124;2023-04-06T01:09:10;4.80;;;3.65;;
2488;SDS011;1255;48.716;9.124;2023-04-06T01:11:37;4.95;;;4.45;;
2488;SDS011;1255;48.716;9.124;2023-04-06T01:14:05;5.35;;;3.85;;
2488;SDS011;1255;48.716;9.124;2023-04-06T01:16:32;5.43;;;3.85;;
2488;SDS011;1255;48.716;9.124;2023-04-06T01:18:59;4.43;;;3.33;;
2488;SDS011;1255;48.716;9.124;2023-04-06T01:21:26;8.07;;;4.28;;
2488;SDS011;1255;48.716;9.124;2023-04-06T01:23:54;3.92;;;3.50;;
2488;SDS011;1255;48.716;9.124;2023-04-06T01:26:21;5.18;;;3.75;;
2488;SDS011;1255;48.716;9.124;2023-04-06T01:28:48;6.35;;;4.78;;
2488;SDS011;1255;48.716;9.124;2023-04-06T01:31:15;6.00;;;3.88;;
2488;SDS011;1255;48.716;9.124;2023-04-06T01:33:41;4.35;;;3.72;;
2488;SDS011;1255;48.716;9.124;2023-04-06T01:36:08;5.28;;;3.95;;
2488;SDS011;1255;48.716;9.124;2023-04-06T01:38:35;5.30;;;3.60;;
2488;SDS011;1255;48.716;9.124;2023-04-06T01:41:03;4.20;;;3.78;;
2488;SDS011;1255;48.716;9.124;2023-04-06T01:43:30;3.90;;;3.45;;
2488;SDS011;1255;48.716;9.124;2023-04-06T01:45:57;6.75;;;4.13;;
2488;SDS011;1255;48.716;9.124;2023-04-06T01:48:23;4.40;;;4.00;;
2488;SDS011;1255;48.716;9.124;2023-04-06T01:50:50;5.13;;;3.45;;
2488;SDS011;1255;48.716;9.124;2023-04-06T01:53:17;3.80;;;3.13;;
2488;SDS011;1255;48.716;9.124;2023-04-06T01:55:44;4.57;;;3.85;;
2488;SDS011;1255;48.716;9.124;2023-04-06T01:58:12;5.03;;;3.30;;
2488;SDS011;1255;48.716;9.124;2023-04-06T02:00:39;5.05;;;3.60;;
2488;SDS011;1255;48.716;9.124;2023-04-06T02:03:06;4.75;;;4.25;;
2488;SDS011;1255;48.716;9.124;2023-04-06T02:05:33;4.18;;;3.58;;
2488;SDS011;1255;48.716;9.124;2023-04-06T02:08:03;9.98;;;4.20;;
2488;SDS011;1255;48.716;9.124;2023-04-06T02:10:32;5.00;;;4.50;;
2488;SDS011;1255;48.716;9.124;2023-04-06T02:12:59;4.88;;;3.75;;
2488;SDS011;1255;48.716;9.124;2023-04-06T02:15:27;4.35;;;3.35;;
2488;SDS011;1255;48.716;9.124;2023-04-06T02:17:54;4.40;;;4.00;;
2488;SDS011;1255;48.716;9.124;2023-04-06T02:20:21;6.30;;;4.30;;
2488;SDS011;1255;48.716;9.124;2023-04-06T02:22:50;4.15;;;3.75;;
2488;SDS011;1255;48.716;9.124;2023-04-06T02:25:17;5.32;;;3.75;;
2488;SDS011;1255;48.716;9.124;2023-04-06T02:27:43;4.82;;;3.75;;
2488;SDS011;1255;48.716;9.124;2023-04-06T02:30:10;6.47;;;4.47;;
2488;SDS011;1255;48.716;9.124;2023-04-06T02:32:39;4.50;;;3.92;;
2488;SDS011;1255;48.716;9.124;2023-04-06T02:35:06;6.15;;;4.80;;
2488;SDS011;1255;48.716;9.124;2023-04-06T02:37:33;6.60;;;4.63;;
2488;SDS011;1255;48.716;9.124;2023-04-06T02:40:00;7.78;;;4.57;;
2488;SDS011;1255;48.716;9.124;2023-04-06T02:42:27;6.07;;;4.60;;
2488;SDS011;1255;48.716;9.124;2023-04-06T02:44:54;4.35;;;3.88;;
2488;SDS011;1255;48.716;9.124;2023-04-06T02:47:21;5.50;;;4.13;;
2488;SDS011;1255;48.716;9.124;2023-04-06T02:49:49;6.60;;;4.75;;
2488;SDS011;1255;48.716;9.124;2023-04-06T02:52:16;10.90;;;4.40;;
2488;SDS011;1255;48.716;9.124;2023-04-06T02:54:43;5.68;;;3.97;;
2488;SDS011;1255;48.716;9.124;2023-04-06T02:57:10;6.70;;;4.20;;
2488;SDS011;1255;48.716;9.124;2023-04-06T02:59:37;6.97;;;4.10;;
2488;SDS011;1255;48.716;9.124;2023-04-06T03:02:04;7.43;;;4.10;;
2488;SDS011;1255;48.716;9.124;2023-04-06T03:04:31;6.72;;;4.53;;
2488;SDS011;1255;48.716;9.124;2023-04-06T03:06:59;4.97;;;3.90;;
2488;SDS011;1255;48.716;9.124;2023-04-06T03:09:26;6.55;;;4.50;;
2488;SDS011;1255;48.716;9.124;2023-04-06T03:11:53;6.00;;;4.80;;
2488;SDS011;1255;48.716;9.124;2023-04-06T03:14:20;6.40;;;4.60;;
2488;SDS011;1255;48.716;9.124;2023-04-06T03:16:47;6.47;;;3.92;;
2488;SDS011;1255;48.716;9.124;2023-04-06T03:19:14;5.22;;;4.10;;
2488;SDS011;1255;48.716;9.124;2023-04-06T03:21:41;6.63;;;4.70;;
2488;SDS011;1255;48.716;9.124;2023-04-06T03:24:09;6.65;;;4.40;;
2488;SDS011;1255;48.716;9.124;2023-04-06T03:26:37;12.05;;;4.80;;
2488;SDS011;1255;48.716;9.124;2023-04-06T03:29:06;8.38;;;4.43;;
2488;SDS011;1255;48.716;9.124;2023-04-06T03:31:33;7.75;;;4.32;;
2488;SDS011;1255;48.716;9.124;2023-04-06T03:34:00;5.25;;;3.70;;
2488;SDS011;1255;48.716;9.124;2023-04-06T03:36:27;6.90;;;4.72;;
2488;SDS011;1255;48.716;9.124;2023-04-06T03:38:56;9.80;;;5.72;;
2488;SDS011;1255;48.716;9.124;2023-04-06T03:41:25;6.00;;;4.00;;
2488;SDS011;1255;48.716;9.124;2023-04-06T03:43:52;5.50;;;4.53;;
2488;SDS011;1255;48.716;9.124;2023-04-06T03:48:47;5.63;;;4.45;;
2488;SDS011;1255;48.716;9.124;2023-04-06T03:51:14;6.28;;;4.90;;
2488;SDS011;1255;48.716;9.124;2023-04-06T03:53:41;4.55;;;4.15;;
2488;SDS011;1255;48.716;9.124;2023-04-06T03:56:08;4.13;;;3.72;;
2488;SDS011;1255;48.716;9.124;2023-04-06T03:58:36;7.65;;;4.47;;
2488;SDS011;1255;48.716;9.124;2023-04-06T04:01:03;6.30;;;4.00;;
2488;SDS011;1255;48.716;9.124;2023-04-06T04:03:29;5.72;;;3.85;;
2488;SDS011;1255;48.716;9.124;2023-04-06T04:05:56;10.38;;;3.45;;
2488;SDS011;1255;48.716;9.124;2023-04-06T04:08:24;7.00;;;4.40;;
2488;SDS011;1255;48.716;9.124;2023-04-06T04:10:51;6.68;;;4.97;;
2488;SDS011;1255;48.716;9.124;2023-04-06T04:13:17;6.82;;;5.10;;
2488;SDS011;1255;48.716;9.124;2023-04-06T04:15:46;7.88;;;4.13;;
2488;SDS011;1255;48.716;9.124;2023-04-06T04:18:13;5.10;;;3.78;;
2488;SDS011;1255;48.716;9.124;2023-04-06T04:20:40;7.30;;;5.90;;
2488;SDS011;1255;48.716;9.124;2023-04-06T04:23:07;7.90;;;4.72;;
2488;SDS011;1255;48.716;9.124;2023-04-06T04:25:33;7.70;;;4.97;;
2488;SDS011;1255;48.716;9.124;2023-04-06T04:28:00;5.72;;;4.32;;
2488;SDS011;1255;48.716;9.124;2023-04-06T04:30:27;5.38;;;4.68;;
2488;SDS011;1255;48.716;9.124;2023-04-06T04:32:55;8.90;;;5.80;;
2488;SDS011;1255;48.716;9.124;2023-04-06T04:35:21;8.63;;;5.25;;
2488;SDS011;1255;48.716;9.124;2023-04-06T04:37:48;4.45;;;4.03;;
2488;SDS011;1255;48.716;9.124;2023-04-06T04:40:14;8.18;;;4.60;;
2488;SDS011;1255;48.716;9.124;2023-04-06T04:42:42;10.38;;;4.30;;
2488;SDS011;1255;48.716;9.124;2023-04-06T04:45:09;6.68;;;4.78;;
2488;SDS011;1255;48.716;9.124;2023-04-06T04:47:36;8.93;;;4.95;;
2488;SDS011;1255;48.716;9.124;2023-04-06T04:50:05;6.43;;;4.00;;
2488;SDS011;1255;48.716;9.124;2023-04-06T04:52:32;9.75;;;4.65;;
2488;SDS011;1255;48.716;9.124;2023-04-06T04:54:58;4.93;;;3.47;;
2488;SDS011;1255;48.716;9.124;2023-04-06T04:57:25;5.60;;;4.43;;
2488;SDS011;1255;48.716;9.124;2023-04-06T04:59:52;6.38;;;4.85;;
2488;SDS011;1255;48.716;9.124;2023-04-06T05:02:19;7.10;;;5.28;;
2488;SDS011;1255;48.716;9.124;2023-04-06T05:04:45;5.10;;;4.20;;
2488;SDS011;1255;48.716;9.124;2023-04-06T05:07:13;6.53;;;4.45;;
2488;SDS011;1255;48.716;9.124;2023-04-06T05:09:43;6.30;;;4.53;;
2488;SDS011;1255;48.716;9.124;2023-04-06T05:12:10;5.70;;;4.90;;
2488;SDS011;1255;48.716;9.124;2023-04-06T05:14:36;8.70;;;4.57;;
2488;SDS011;1255;48.716;9.124;2023-04-06T05:17:03;6.63;;;4.75;;
2488;SDS011;1255;48.716;9.124;2023-04-06T05:19:30;5.43;;;4.45;;
2488;SDS011;1255;48.716;9.124;2023-04-06T05:21:57;7.20;;;4.25;;
2488;SDS011;1255;48.716;9.124;2023-04-06T05:24:25;6.95;;;4.57;;
2488;SDS011;1255;48.716;9.124;2023-04-06T05:26:51;6.07;;;4.55;;
2488;SDS011;1255;48.716;9.124;2023-04-06T05:29:18;7.65;;;5.45;;
2488;SDS011;1255;48.716;9.124;2023-04-06T05:31:46;8.68;;;5.05;;
2488;SDS011;1255;48.716;9.124;2023-04-06T05:34:12;6.30;;;4.10;;
2488;SDS011;1255;48.716;9.124;2023-04-06T05:36:39;6.20;;;4.28;;
2488;SDS011;1255;48.716;9.124;2023-04-06T05:39:06;5.20;;;4.40;;
2488;SDS011;1255;48.716;9.124;2023-04-06T05:41:34;6.45;;;4.60;;
2488;SDS011;1255;48.716;9.124;2023-04-06T05:44:01;6.32;;;5.10;;
2488;SDS011;1255;48.716;9.124;2023-04-06T05:46:27;9.60;;;5.32;;
2488;SDS011;1255;48.716;9.124;2023-04-06T05:48:54;8.43;;;4.45;;
2488;SDS011;1255;48.716;9.124;2023-04-06T05:51:21;7.85;;;5.13;;
2488;SDS011;1255;48.716;9.124;2023-04-06T05:53:48;5.75;;;4.13;;
2488;SDS011;1255;48.716;9.124;2023-04-06T05:56:14;6.55;;;4.68;;
2488;SDS011;1255;48.716;9.124;2023-04-06T05:58:42;6.38;;;4.75;;
2488;SDS011;1255;48.716;9.124;2023-04-06T06:01:09;8.57;;;5.38;;
2488;SDS011;1255;48.716;9.124;2023-04-06T06:03:36;5.95;;;4.45;;
2488;SDS011;1255;48.716;9.124;2023-04-06T06:06:03;5.95;;;4.60;;
2488;SDS011;1255;48.716;9.124;2023-04-06T06:08:30;5.25;;;4.72;;
2488;SDS011;1255;48.716;9.124;2023-04-06T06:10:57;5.72;;;4.25;;
2488;SDS011;1255;48.716;9.124;2023-04-06T06:13:24;5.32;;;4.15;;
2488;SDS011;1255;48.716;9.124;2023-04-06T06:15:52;7.05;;;4.22;;
2488;SDS011;1255;48.716;9.124;2023-04-06T06:18:18;8.73;;;5.65;;
2488;SDS011;1255;48.716;9.124;2023-04-06T06:20:45;7.88;;;4.88;;
2488;SDS011;1255;48.716;9.124;2023-04-06T06:23:12;9.10;;;5.15;;
2488;SDS011;1255;48.716;9.124;2023-04-06T06:25:38;8.27;;;5.68;;
2488;SDS011;1255;48.716;9.124;2023-04-06T06:28:05;6.35;;;5.45;;
2488;SDS011;1255;48.716;9.124;2023-04-06T06:30:32;8.45;;;5.63;;
2488;SDS011;1255;48.716;9.124;2023-04-06T06:33:00;8.75;;;5.72;;
2488;SDS011;1255;48.716;9.124;2023-04-06T06:35:28;7.57;;;6.18;;
2488;SDS011;1255;48.716;9.124;2023-04-06T06:37:54;10.45;;;5.72;;
2488;SDS011;1255;48.716;9.124;2023-04-06T06:40:21;6.18;;;5.22;;
2488;SDS011;1255;48.716;9.124;2023-04-06T06:42:48;6.05;;;5.05;;
2488;SDS011;1255;48.716;9.124;2023-04-06T06:45:16;7.80;;;6.13;;
2488;SDS011;1255;48.716;9.124;2023-04-06T06:47:43;8.32;;;6.50;;
2488;SDS011;1255;48.716;9.124;2023-04-06T06:50:11;7.00;;;5.95;;
2488;SDS011;1255;48.716;9.124;2023-04-06T06:52:38;7.70;;;5.75;;
2488;SDS011;1255;48.716;9.124;2023-04-06T06:55:06;8.35;;;5.65;;
2488;SDS011;1255;48.716;9.124;2023-04-06T06:57:34;8.50;;;5.80;;
2488;SDS011;1255;48.716;9.124;2023-04-06T07:00:01;7.35;;;5.78;;
2488;SDS011;1255;48.716;9.124;2023-04-06T07:02:28;8.35;;;6.28;;
2488;SDS011;1255;48.716;9.124;2023-04-06T07:04:55;5.03;;;4.50;;
2488;SDS011;1255;48.716;9.124;2023-04-06T07:07:23;10.55;;;4.95;;
2488;SDS011;1255;48.716;9.124;2023-04-06T07:09:50;7.82;;;5.40;;
2488;SDS011;1255;48.716;9.124;2023-04-06T07:12:16;10.02;;;5.28;;
2488;SDS011;1255;48.716;9.124;2023-04-06T07:14:43;5.82;;;4.75;;
2488;SDS011;1255;48.716;9.124;2023-04-06T07:17:10;6.13;;;4.45;;
2488;SDS011;1255;48.716;9.124;2023-04-06T07:19:36;5.55;;;4.88;;
2488;SDS011;1255;48.716;9.124;2023-04-06T07:22:03;6.80;;;5.20;;
2488;SDS011;1255;48.716;9.124;2023-04-06T07:24:31;5.72;;;5.13;;
2488;SDS011;1255;48.716;9.124;2023-04-06T07:26:58;7.00;;;5.05;;
2488;SDS011;1255;48.716;9.124;2023-04-06T07:29:26;5.50;;;5.00;;
2488;SDS011;1255;48.716;9.124;2023-04-06T07:31:53;7.13;;;5.13;;
2488;SDS011;1255;48.716;9.124;2023-04-06T07:34:20;6.65;;;4.53;;
2488;SDS011;1255;48.716;9.124;2023-04-06T07:36:47;10.15;;;4.93;;
2488;SDS011;1255;48.716;9.124;2023-04-06T07:39:14;7.30;;;5.25;;
2488;SDS011;1255;48.716;9.124;2023-04-06T07:41:42;6.55;;;4.38;;
2488;SDS011;1255;48.716;9.124;2023-04-06T07:44:08;7.32;;;4.93;;
2488;SDS011;1255;48.716;9.124;2023-04-06T07:46:35;7.15;;;4.43;;
2488;SDS011;1255;48.716;9.124;2023-04-06T07:49:02;6.85;;;5.30;;
2488;SDS011;1255;48.716;9.124;2023-04-06T07:51:28;7.20;;;5.85;;
2488;SDS011;1255;48.716;9.124;2023-04-06T07:53:56;6.93;;;5.05;;
2488;SDS011;1255;48.716;9.124;2023-04-06T07:56:22;5.95;;;4.65;;
2488;SDS011;1255;48.716;9.124;2023-04-06T07:58:51;6.78;;;5.13;;
2488;SDS011;1255;48.716;9.124;2023-04-06T08:01:20;6.10;;;4.90;;
2488;SDS011;1255;48.716;9.124;2023-04-06T08:03:47;5.75;;;4.97;;
2488;SDS011;1255;48.716;9.124;2023-04-06T08:06:13;7.93;;;5.07;;
2488;SDS011;1255;48.716;9.124;2023-04-06T08:08:40;9.07;;;5.45;;
2488;SDS011;1255;48.716;9.124;2023-04-06T08:11:07;7.63;;;5.70;;
2488;SDS011;1255;48.716;9.124;2023-04-06T08:13:34;9.00;;;5.10;;
2488;SDS011;1255;48.716;9.124;2023-04-06T08:16:02;6.82;;;4.75;;
2488;SDS011;1255;48.716;9.124;2023-04-06T08:18:29;7.90;;;5.43;;
2488;SDS011;1255;48.716;9.124;2023-04-06T08:20:56;6.32;;;5.18;;
2488;SDS011;1255;48.716;9.124;2023-04-06T08:23:23;6.28;;;5.50;;
2488;SDS011;1255;48.716;9.124;2023-04-06T08:25:49;6.63;;;5.80;;
2488;SDS011;1255;48.716;9.124;2023-04-06T08:28:19;6.50;;;4.53;;
2488;SDS011;1255;48.716;9.124;2023-04-06T08:30:45;7.87;;;6.03;;
2488;SDS011;1255;48.716;9.124;2023-04-06T08:33:14;6.80;;;5.97;;
2488;SDS011;1255;48.716;9.124;2023-04-06T08:35:40;5.90;;;5.30;;
2488;SDS011;1255;48.716;9.124;2023-04-06T08:38:07;5.97;;;5.37;;
2488;SDS011;1255;48.716;9.124;2023-04-06T08:40:41;9.20;;;5.70;;
2488;SDS011;1255;48.716;9.124;2023-04-06T08:43:26;5.80;;;5.17;;
2488;SDS011;1255;48.716;9.124;2023-04-06T08:46:09;7.33;;;5.80;;
2488;SDS011;1255;48.716;9.124;2023-04-06T08:48:46;6.70;;;5.90;;
2488;SDS011;1255;48.716;9.124;2023-04-06T08:51:32;7.03;;;5.63;;
2488;SDS011;1255;48.716;9.124;2023-04-06T08:54:26;6.30;;;5.60;;
2488;SDS011;1255;48.716;9.124;2023-04-06T08:57:03;7.03;;;5.77;;
2488;SDS011;1255;48.716;9.124;2023-04-06T08:59:31;6.23;;;4.63;;
2488;SDS011;1255;48.716;9.124;2023-04-06T09:02:12;6.00;;;5.40;;
2488;SDS011;1255;48.716;9.124;2023-04-06T09:08:10;6.67;;;5.60;;
2488;SDS011;1255;48.716;9.124;2023-04-06T09:10:40;6.27;;;5.00;;
2488;SDS011;1255;48.716;9.124;2023-04-06T09:13:07;6.57;;;5.30;;
2488;SDS011;1255;48.716;9.124;2023-04-06T09:15:57;5.53;;;4.37;;
2488;SDS011;1255;48.716;9.124;2023-04-06T09:18:27;5.90;;;4.70;;
2488;SDS011;1255;48.716;9.124;2023-04-06T09:21:02;5.63;;;4.80;;
2488;SDS011;1255;48.716;9.124;2023-04-06T09:23:30;4.27;;;3.87;;
2488;SDS011;1255;48.716;9.124;2023-04-06T09:26:07;5.87;;;5.37;;
2488;SDS011;1255;48.716;9.124;2023-04-06T09:28:42;4.60;;;4.20;;
2488;SDS011;1255;48.716;9.124;2023-04-06T09:31:10;6.00;;;4.93;;
2488;SDS011;1255;48.716;9.124;2023-04-06T09:33:37;6.20;;;4.67;;
2488;SDS011;1255;48.716;9.124;2023-04-06T09:36:06;8.93;;;4.60;;
2488;SDS011;1255;48.716;9.124;2023-04-06T09:38:34;6.60;;;5.40;;
2488;SDS011;1255;48.716;9.124;2023-04-06T09:41:02;6.50;;;5.20;;
2488;SDS011;1255;48.716;9.124;2023-04-06T09:43:30;4.93;;;4.50;;
2488;SDS011;1255;48.716;9.124;2023-04-06T09:45:57;5.30;;;4.77;;
2488;SDS011;1255;48.716;9.124;2023-04-06T09:48:27;5.63;;;5.10;;
2488;SDS011;1255;48.716;9.124;2023-04-06T09:50:58;6.07;;;5.10;;
2488;SDS011;1255;48.716;9.124;2023-04-06T09:53:30;5.00;;;4.60;;
2488;SDS011;1255;48.716;9.124;2023-04-06T09:56:02;5.30;;;4.80;;
2488;SDS011;1255;48.716;9.124;2023-04-06T09:58:31;5.40;;;4.67;;
2488;SDS011;1255;48.716;9.124;2023-04-06T10:01:01;5.97;;;5.10;;
2488;SDS011;1255;48.716;9.124;2023-04-06T10:03:36;4.57;;;4.17;;
2488;SDS011;1255;48.716;9.124;2023-04-06T10:06:11;5.30;;;4.80;;
2488;SDS011;1255;48.716;9.124;2023-04-06T10:08:42;4.87;;;4.37;;
2488;SDS011;1255;48.716;9.124;2023-04-06T10:11:12;5.80;;;5.20;;
2488;SDS011;1255;48.716;9.124;2023-04-06T10:13:39;6.07;;;5.10;;
2488;SDS011;1255;48.716;9.124;2023-04-06T10:16:07;5.63;;;5.13;;
2488;SDS011;1255;48.716;9.124;2023-04-06T10:18:34;7.03;;;4.80;;
2488;SDS011;1255;48.716;9.124;2023-04-06T10:21:06;5.43;;;4.93;;
2488;SDS011;1255;48.716;9.124;2023-04-06T10:23:36;6.53;;;5.27;;
2488;SDS011;1255;48.716;9.124;2023-04-06T10:26:13;6.90;;;5.17;;
2488;SDS011;1255;48.716;9.124;2023-04-06T10:28:42;5.10;;;4.60;;
2488;SDS011;1255;48.716;9.124;2023-04-06T10:31:09;5.87;;;5.27;;
2488;SDS011;1255;48.716;9.124;2023-04-06T10:33:36;5.70;;;4.73;;
2488;SDS011;1255;48.716;9.124;2023-04-06T10:36:10;5.80;;;5.00;;
2488;SDS011;1255;48.716;9.124;2023-04-06T10:38:37;5.73;;;5.07;;
2488;SDS011;1255;48.716;9.124;2023-04-06T10:41:05;6.00;;;5.20;;
2488;SDS011;1255;48.716;9.124;2023-04-06T10:43:35;5.80;;;4.70;;
2488;SDS011;1255;48.716;9.124;2023-04-06T10:46:04;6.37;;;4.70;;
2488;SDS011;1255;48.716;9.124;2023-04-06T10:48:38;6.90;;;5.33;;
2488;SDS011;1255;48.716;9.124;2023-04-06T10:51:10;5.90;;;5.30;;
2488;SDS011;1255;48.716;9.124;2023-04-06T10:53:38;8.07;;;5.30;;
2488;SDS011;1255;48.716;9.124;2023-04-06T10:56:09;5.53;;;5.03;;
2488;SDS011;1255;48.716;9.124;2023-04-06T10:58:38;6.10;;;4.87;;
2488;SDS011;1255;48.716;9.124;2023-04-06T11:01:11;5.23;;;4.73;;
2488;SDS011;1255;48.716;9.124;2023-04-06T11:03:43;4.93;;;4.43;;
2488;SDS011;1255;48.716;9.124;2023-04-06T11:06:24;6.80;;;5.00;;
2488;SDS011;1255;48.716;9.124;2023-04-06T11:08:54;5.10;;;4.40;;
2488;SDS011;1255;48.716;9.124;2023-04-06T11:11:22;4.57;;;4.20;;
2488;SDS011;1255;48.716;9.124;2023-04-06T11:13:53;5.20;;;4.67;;
2488;SDS011;1255;48.716;9.124;2023-04-06T11:16:21;5.30;;;4.70;;
2488;SDS011;1255;48.716;9.124;2023-04-06T11:18:50;6.70;;;4.90;;
2488;SDS011;1255;48.716;9.124;2023-04-06T11:21:18;5.00;;;4.50;;
2488;SDS011;1255;48.716;9.124;2023-04-06T11:23:45;8.30;;;5.00;;
2488;SDS011;1255;48.716;9.124;2023-04-06T11:26:12;6.67;;;4.70;;
2488;SDS011;1255;48.716;9.124;2023-04-06T11:28:40;5.83;;;4.60;;
2488;SDS011;1255;48.716;9.124;2023-04-06T11:31:10;5.90;;;4.57;;
2488;SDS011;1255;48.716;9.124;2023-04-06T11:33:37;6.67;;;4.90;;
2488;SDS011;1255;48.716;9.124;2023-04-06T11:36:05;4.30;;;3.93;;
2488;SDS011;1255;48.716;9.124;2023-04-06T11:38:33;4.63;;;4.07;;
2488;SDS011;1255;48.716;9.124;2023-04-06T11:41:00;4.77;;;4.30;;
2488;SDS011;1255;48.716;9.124;2023-04-06T11:43:28;5.00;;;4.50;;
2488;SDS011;1255;48.716;9.124;2023-04-06T11:45:59;6.50;;;4.37;;
2488;SDS011;1255;48.716;9.124;2023-04-06T11:48:29;5.53;;;4.50;;
2488;SDS011;1255;48.716;9.124;2023-04-06T11:50:56;4.97;;;4.47;;
2488;SDS011;1255;48.716;9.124;2023-04-06T11:53:25;4.77;;;4.37;;
2488;SDS011;1255;48.716;9.124;2023-04-06T11:55:53;6.07;;;4.57;;
2488;SDS011;1255;48.716;9.124;2023-04-06T11:58:20;4.57;;;4.17;;
2488;SDS011;1255;48.716;9.124;2023-04-06T12:00:47;5.10;;;4.47;;
2488;SDS011;1255;48.716;9.124;2023-04-06T12:03:14;5.43;;;4.10;;
2488;SDS011;1255;48.716;9.124;2023-04-06T12:05:44;4.33;;;3.80;;
2488;SDS011;1255;48.716;9.124;2023-04-06T12:08:19;5.13;;;4.63;;
2488;SDS011;1255;48.716;9.124;2023-04-06T12:10:56;5.23;;;4.33;;
2488;SDS011;1255;48.716;9.124;2023-04-06T12:13:26;5.03;;;4.63;;
2488;SDS011;1255;48.716;9.124;2023-04-06T12:15:53;5.10;;;4.43;;
2488;SDS011;1255;48.716;9.124;2023-04-06T12:18:20;7.50;;;4.70;;
2488;SDS011;1255;48.716;9.124;2023-04-06T12:20:48;5.23;;;4.43;;
2488;SDS011;1255;48.716;9.124;2023-04-06T12:23:15;5.17;;;4.27;;
2488;SDS011;1255;48.716;9.124;2023-04-06T12:25:42;4.90;;;4.40;;
2488;SDS011;1255;48.716;9.124;2023-04-06T12:28:09;5.20;;;4.70;;
2488;SDS011;1255;48.716;9.124;2023-04-06T12:30:36;6.27;;;4.50;;
2488;SDS011;1255;48.716;9.124;2023-04-06T12:33:03;4.97;;;4.27;;
2488;SDS011;1255;48.716;9.124;2023-04-06T12:35:47;5.10;;;4.10;;
2488;SDS011;1255;48.716;9.124;2023-04-06T12:38:15;5.00;;;4.10;;
2488;SDS011;1255;48.716;9.124;2023-04-06T12:40:42;5.33;;;4.30;;
2488;SDS011;1255;48.716;9.124;2023-04-06T12:43:09;5.07;;;4.57;;
2488;SDS011;1255;48.716;9.124;2023-04-06T12:45:38;5.90;;;4.40;;
2488;SDS011;1255;48.716;9.124;2023-04-06T12:48:11;4.67;;;4.27;;
2488;SDS011;1255;48.716;9.124;2023-04-06T12:54:09;5.57;;;3.97;;
2488;SDS011;1255;48.716;9.124;2023-04-06T12:56:59;4.90;;;3.83;;
2488;SDS011;1255;48.716;9.124;2023-04-06T12:59:31;5.30;;;4.60;;
2488;SDS011;1255;48.716;9.124;2023-04-06T13:02:28;5.10;;;4.23;;
2488;SDS011;1255;48.716;9.124;2023-04-06T13:05:05;4.40;;;4.00;;
2488;SDS011;1255;48.716;9.124;2023-04-06T13:08:19;4.90;;;4.10;;
2488;SDS011;1255;48.716;9.124;2023-04-06T13:11:18;4.60;;;3.93;;
2488;SDS011;1255;48.716;9.124;2023-04-06T13:13:48;5.23;;;4.33;;
2488;SDS011;1255;48.716;9.124;2023-04-06T13:19:18;4.97;;;3.90;;
2488;SDS011;1255;48.716;9.124;2023-04-06T13:21:46;5.37;;;4.40;;
2488;SDS011;1255;48.716;9.124;2023-04-06T13:24:15;6.20;;;4.03;;
2488;SDS011;1255;48.716;9.124;2023-04-06T13:26:44;5.87;;;4.70;;
2488;SDS011;1255;48.716;9.124;2023-04-06T13:29:28;5.17;;;4.50;;
2488;SDS011;1255;48.716;9.124;2023-04-06T13:32:15;5.03;;;4.47;;
2488;SDS011;1255;48.716;9.124;2023-04-06T13:34:56;4.33;;;3.80;;
2488;SDS011;1255;48.716;9.124;2023-04-06T13:37:38;4.30;;;3.83;;
2488;SDS011;1255;48.716;9.124;2023-04-06T13:43:18;5.30;;;3.77;;
2488;SDS011;1255;48.716;9.124;2023-04-06T13:46:15;4.83;;;4.30;;
2488;SDS011;1255;48.716;9.124;2023-04-06T13:49:10;4.87;;;3.70;;
2488;SDS011;1255;48.716;9.124;2023-04-06T13:52:20;6.27;;;4.10;;
2488;SDS011;1255;48.716;9.124;2023-04-06T13:54:46;3.93;;;3.57;;
2488;SDS011;1255;48.716;9.124;2023-04-06T13:57:31;4.70;;;4.10;;
2488;SDS011;1255;48.716;9.124;2023-04-06T14:00:08;4.50;;;3.93;;
2488;SDS011;1255;48.716;9.124;2023-04-06T14:03:32;7.20;;;4.70;;
2488;SDS011;1255;48.716;9.124;2023-04-06T14:09:15;5.00;;;4.40;;
2488;SDS011;1255;48.716;9.124;2023-04-06T14:21:55;5.03;;;3.97;;
2488;SDS011;1255;48.716;9.124;2023-04-06T14:27:23;5.20;;;4.23;;
2488;SDS011;1255;48.716;9.124;2023-04-06T14:29:50;5.17;;;3.97;;
2488;SDS011;1255;48.716;9.124;2023-04-06T14:32:17;5.00;;;3.83;;
2488;SDS011;1255;48.716;9.124;2023-04-06T14:34:46;3.53;;;3.23;;
2488;SDS011;1255;48.716;9.124;2023-04-06T14:37:13;3.60;;;3.30;;
2488;SDS011;1255;48.716;9.124;2023-04-06T14:39:41;3.60;;;3.30;;
2488;SDS011;1255;48.716;9.124;2023-04-06T14:42:07;3.87;;;2.90;;
2488;SDS011;1255;48.716;9.124;2023-04-06T14:44:34;3.50;;;3.10;;
2488;SDS011;1255;48.716;9.124;2023-04-06T14:47:01;4.03;;;3.20;;
2488;SDS011;1255;48.716;9.124;2023-04-06T14:49:29;3.57;;;3.20;;
2488;SDS011;1255;48.716;9.124;2023-04-06T14:51:57;4.70;;;3.40;;
2488;SDS011;1255;48.716;9.124;2023-04-06T14:54:25;4.13;;;3.33;;
2488;SDS011;1255;48.716;9.124;2023-04-06T14:56:52;3.80;;;3.50;;
2488;SDS011;1255;48.716;9.124;2023-04-06T14:59:19;4.30;;;3.23;;
2488;SDS011;1255;48.716;9.124;2023-04-06T15:01:46;3.40;;;3.10;;
2488;SDS011;1255;48.716;9.124;2023-04-06T15:04:12;4.13;;;3.57;;
2488;SDS011;1255;48.716;9.124;2023-04-06T15:06:40;3.73;;;3.40;;
2488;SDS011;1255;48.716;9.124;2023-04-06T15:09:08;4.53;;;3.80;;
2488;SDS011;1255;48.716;9.124;2023-04-06T15:11:34;4.00;;;3.50;;
2488;SDS011;1255;48.716;9.124;2023-04-06T15:14:01;5.50;;;3.60;;
2488;SDS011;1255;48.716;9.124;2023-04-06T15:16:28;3.70;;;3.33;;
2488;SDS011;1255;48.716;9.124;2023-04-06T15:18:57;3.47;;;3.17;;
2488;SDS011;1255;48.716;9.124;2023-04-06T15:21:23;4.30;;;3.40;;
2488;SDS011;1255;48.716;9.124;2023-04-06T15:23:51;4.47;;;3.70;;
2488;SDS011;1255;48.716;9.124;2023-04-06T15:26:20;4.20;;;3.20;;
2488;SDS011;1255;48.716;9.124;2023-04-06T15:28:47;3.40;;;2.97;;
2488;SDS011;1255;48.716;9.124;2023-04-06T15:31:14;3.90;;;3.53;;
2488;SDS011;1255;48.716;9.124;2023-04-06T15:33:41;4.73;;;4.20;;
2488;SDS011;1255;48.716;9.124;2023-04-06T15:36:08;4.30;;;3.43;;
2488;SDS011;1255;48.716;9.124;2023-04-06T15:38:48;5.57;;;3.73;;
2488;SDS011;1255;48.716;9.124;2023-04-06T15:41:16;3.80;;;3.50;;
2488;SDS011;1255;48.716;9.124;2023-04-06T15:43:44;4.30;;;3.47;;
2488;SDS011;1255;48.716;9.124;2023-04-06T15:46:10;4.20;;;3.80;;
2488;SDS011;1255;48.716;9.124;2023-04-06T15:48:37;4.60;;;3.40;;
2488;SDS011;1255;48.716;9.124;2023-04-06T15:51:04;4.20;;;3.53;;
2488;SDS011;1255;48.716;9.124;2023-04-06T15:53:31;4.93;;;3.80;;
2488;SDS011;1255;48.716;9.124;2023-04-06T15:55:58;4.40;;;3.90;;
2488;SDS011;1255;48.716;9.124;2023-04-06T15:58:25;4.03;;;3.53;;